sensor_id;sensor_type;location;lat;lon;timestamp;pressure;altitude;pressure_sealevel;temperature;humidity
82887;BME280;72660;51.258;-2.200;2023-10-08T00:01:44;101741.10;;;17.79;49.01
82887;BME280;72660;51.258;-2.200;2023-10-08T00:04:10;101740.37;;;18.04;48.63
82887;BME280;72660;51.258;-2.200;2023-10-08T00:06:36;101738.35;;;18.15;49.16
82887;BME280;72660;51.258;-2.200;2023-10-08T00:09:01;101735.17;;;18.31;47.37
82887;BME280;72660;51.258;-2.200;2023-10-08T00:11:27;101738.88;;;18.35;48.25
82887;BME280;72660;51.258;-2.200;2023-10-08T00:13:52;101739.02;;;18.12;47.25
82887;BME280;72660;51.258;-2.200;2023-10-08T00:16:18;101739.57;;;18.22;49.06
82887;BME280;72660;51.258;-2.200;2023-10-08T00:18:44;101738.98;;;18.28;47.33
82887;BME280;72660;51.258;-2.200;2023-10-08T00:21:08;101741.50;;;18.17;47.54
82887;BME280;72660;51.258;-2.200;2023-10-08T00:23:34;101738.52;;;18.21;47.40
82887;BME280;72660;51.258;-2.200;2023-10-08T00:25:59;101740.94;;;18.46;48.35
82887;BME280;72660;51.258;-2.200;2023-10-08T00:28:24;101742.59;;;18.27;48.59
82887;BME280;72660;51.258;-2.200;2023-10-08T00:30:50;101739.75;;;18.54;48.85
82887;BME280;72660;51.258;-2.200;2023-10-08T00:33:15;101736.86;;;18.81;48.49
82887;BME280;72660;51.258;-2.200;2023-10-08T00:35:41;101737.67;;;17.98;46.55
82887;BME280;72660;51.258;-2.200;2023-10-08T00:38:05;101738.55;;;18.07;48.14
82887;BME280;72660;51.258;-2.200;2023-10-08T00:40:36;101736.07;;;18.10;47.94
82887;BME280;72660;51.258;-2.200;2023-10-08T00:42:56;101731.96;;;18.06;46.26
82887;BME280;72660;51.258;-2.200;2023-10-08T00:45:22;101728.46;;;18.33;48.61
82887;BME280;72660;51.258;-2.200;2023-10-08T00:47:47;101725.37;;;18.20;48.57
82887;BME280;72660;51.258;-2.200;2023-10-08T00:50:13;101720.80;;;18.42;47.43
82887;BME280;72660;51.258;-2.200;2023-10-08T00:52:38;101723.55;;;18.33;48.56
82887;BME280;72660;51.258;-2.200;2023-10-08T00:55:04;101720.44;;;18.08;45.87
82887;BME280;72660;51.258;-2.200;2023-10-08T00:57:29;101718.00;;;17.67;46.22
82887;BME280;72660;51.258;-2.200;2023-10-08T00:59:54;101711.23;;;17.42;46.62
82887;BME280;72660;51.258;-2.200;2023-10-08T01:02:19;101715.02;;;17.97;48.72
82887;BME280;72660;51.258;-2.200;2023-10-08T01:04:44;101714.32;;;17.65;47.13
82887;BME280;72660;51.258;-2.200;2023-10-08T01:07:11;101716.48;;;17.80;48.40
82887;BME280;72660;51.258;-2.200;2023-10-08T01:09:35;101718.97;;;17.70;47.28
82887;BME280;72660;51.258;-2.200;2023-10-08T01:12:10;101719.93;;;17.61;47.66
82887;BME280;72660;51.258;-2.200;2023-10-08T01:14:25;101720.80;;;17.66;47.79
82887;BME280;72660;51.258;-2.200;2023-10-08T01:16:51;101719.85;;;17.62;48.23
82887;BME280;72660;51.258;-2.200;2023-10-08T01:19:18;101720.69;;;17.62;48.16
82887;BME280;72660;51.258;-2.200;2023-10-08T01:21:41;101719.58;;;17.63;49.28
82887;BME280;72660;51.258;-2.200;2023-10-08T01:24:07;101718.42;;;18.10;48.69
82887;BME280;72660;51.258;-2.200;2023-10-08T01:26:35;101717.29;;;17.99;49.05
82887;BME280;72660;51.258;-2.200;2023-10-08T01:28:57;101713.81;;;17.88;48.12
82887;BME280;72660;51.258;-2.200;2023-10-08T01:31:22;101715.31;;;18.08;48.25
82887;BME280;72660;51.258;-2.200;2023-10-08T01:33:48;101713.41;;;17.85;45.93
82887;BME280;72660;51.258;-2.200;2023-10-08T01:36:14;101712.48;;;17.42;46.17
82887;BME280;72660;51.258;-2.200;2023-10-08T01:38:39;101711.54;;;17.55;47.91
82887;BME280;72660;51.258;-2.200;2023-10-08T01:41:04;101711.18;;;17.45;47.30
82887;BME280;72660;51.258;-2.200;2023-10-08T01:43:29;101710.34;;;17.73;48.69
82887;BME280;72660;51.258;-2.200;2023-10-08T01:45:55;101708.50;;;17.39;46.72
82887;BME280;72660;51.258;-2.200;2023-10-08T01:48:20;101702.35;;;17.23;46.63
82887;BME280;72660;51.258;-2.200;2023-10-08T01:50:46;101705.26;;;17.14;46.65
82887;BME280;72660;51.258;-2.200;2023-10-08T01:53:11;101703.65;;;17.37;47.50
82887;BME280;72660;51.258;-2.200;2023-10-08T01:55:37;101700.43;;;17.39;48.43
82887;BME280;72660;51.258;-2.200;2023-10-08T01:58:02;101698.54;;;17.57;46.88
82887;BME280;72660;51.258;-2.200;2023-10-08T02:00:27;101696.35;;;17.37;47.02
82887;BME280;72660;51.258;-2.200;2023-10-08T02:02:52;101699.50;;;17.11;48.74
82887;BME280;72660;51.258;-2.200;2023-10-08T02:05:18;101699.69;;;16.58;46.97
82887;BME280;72660;51.258;-2.200;2023-10-08T02:07:42;101702.10;;;16.54;47.44
82887;BME280;72660;51.258;-2.200;2023-10-08T02:10:08;101705.79;;;17.01;48.76
82887;BME280;72660;51.258;-2.200;2023-10-08T02:12:33;101707.48;;;17.17;47.46
82887;BME280;72660;51.258;-2.200;2023-10-08T02:14:58;101707.73;;;17.19;47.46
82887;BME280;72660;51.258;-2.200;2023-10-08T02:17:23;101708.10;;;17.06;47.30
82887;BME280;72660;51.258;-2.200;2023-10-08T02:19:49;101707.60;;;16.81;47.21
82887;BME280;72660;51.258;-2.200;2023-10-08T02:22:14;101704.89;;;17.17;47.69
82887;BME280;72660;51.258;-2.200;2023-10-08T02:24:39;101703.15;;;16.60;47.82
82887;BME280;72660;51.258;-2.200;2023-10-08T02:27:06;101702.82;;;16.69;48.40
82887;BME280;72660;51.258;-2.200;2023-10-08T02:29:31;101699.95;;;17.16;49.09
82887;BME280;72660;51.258;-2.200;2023-10-08T02:31:55;101694.43;;;17.05;49.13
82887;BME280;72660;51.258;-2.200;2023-10-08T02:34:20;101691.82;;;16.43;47.86
82887;BME280;72660;51.258;-2.200;2023-10-08T02:36:46;101691.99;;;16.55;47.86
82887;BME280;72660;51.258;-2.200;2023-10-08T02:39:11;101693.26;;;16.85;47.86
82887;BME280;72660;51.258;-2.200;2023-10-08T02:41:37;101696.80;;;16.45;48.07
82887;BME280;72660;51.258;-2.200;2023-10-08T02:44:02;101697.53;;;16.54;48.86
82887;BME280;72660;51.258;-2.200;2023-10-08T02:46:28;101698.87;;;16.35;48.33
82887;BME280;72660;51.258;-2.200;2023-10-08T02:48:53;101696.05;;;16.39;48.38
82887;BME280;72660;51.258;-2.200;2023-10-08T02:51:18;101698.39;;;16.77;49.82
82887;BME280;72660;51.258;-2.200;2023-10-08T02:53:43;101699.89;;;16.98;48.08
82887;BME280;72660;51.258;-2.200;2023-10-08T02:56:09;101701.22;;;17.03;47.79
82887;BME280;72660;51.258;-2.200;2023-10-08T02:58:34;101701.52;;;16.81;48.91
82887;BME280;72660;51.258;-2.200;2023-10-08T03:00:59;101703.46;;;16.62;47.26
82887;BME280;72660;51.258;-2.200;2023-10-08T03:03:24;101704.09;;;16.91;47.65
82887;BME280;72660;51.258;-2.200;2023-10-08T03:05:52;101705.77;;;16.68;47.69
82887;BME280;72660;51.258;-2.200;2023-10-08T03:08:17;101702.37;;;17.04;49.60
82887;BME280;72660;51.258;-2.200;2023-10-08T03:10:41;101700.95;;;17.07;47.92
82887;BME280;72660;51.258;-2.200;2023-10-08T03:13:07;101705.33;;;16.83;47.89
82887;BME280;72660;51.258;-2.200;2023-10-08T03:15:32;101706.96;;;16.37;48.66
82887;BME280;72660;51.258;-2.200;2023-10-08T03:18:00;101707.86;;;16.71;48.31
82887;BME280;72660;51.258;-2.200;2023-10-08T03:20:23;101708.29;;;16.62;49.45
82887;BME280;72660;51.258;-2.200;2023-10-08T03:22:48;101710.06;;;16.97;49.20
82887;BME280;72660;51.258;-2.200;2023-10-08T03:25:13;101709.08;;;16.43;48.12
82887;BME280;72660;51.258;-2.200;2023-10-08T03:27:39;101708.68;;;16.55;48.23
82887;BME280;72660;51.258;-2.200;2023-10-08T03:30:05;101708.85;;;16.26;48.47
82887;BME280;72660;51.258;-2.200;2023-10-08T03:32:29;101706.15;;;16.41;48.75
82887;BME280;72660;51.258;-2.200;2023-10-08T03:34:54;101704.92;;;16.73;49.43
82887;BME280;72660;51.258;-2.200;2023-10-08T03:37:21;101705.85;;;16.56;47.78
82887;BME280;72660;51.258;-2.200;2023-10-08T03:39:46;101706.64;;;16.10;47.79
82887;BME280;72660;51.258;-2.200;2023-10-08T03:42:10;101708.09;;;16.65;48.72
82887;BME280;72660;51.258;-2.200;2023-10-08T03:44:35;101703.75;;;16.65;49.70
82887;BME280;72660;51.258;-2.200;2023-10-08T03:47:01;101702.66;;;16.56;48.08
82887;BME280;72660;51.258;-2.200;2023-10-08T03:49:26;101701.19;;;17.13;49.88
82887;BME280;72660;51.258;-2.200;2023-10-08T03:51:52;101701.10;;;17.01;49.24
82887;BME280;72660;51.258;-2.200;2023-10-08T03:54:19;101699.40;;;17.31;47.02
82887;BME280;72660;51.258;-2.200;2023-10-08T03:56:43;101693.50;;;16.45;47.76
82887;BME280;72660;51.258;-2.200;2023-10-08T03:59:08;101692.33;;;16.92;48.93
82887;BME280;72660;51.258;-2.200;2023-10-08T04:01:33;101688.65;;;16.27;48.98
82887;BME280;72660;51.258;-2.200;2023-10-08T04:03:58;101685.85;;;17.21;49.43
82887;BME280;72660;51.258;-2.200;2023-10-08T04:06:26;101685.69;;;16.82;47.38
82887;BME280;72660;51.258;-2.200;2023-10-08T04:08:49;101684.18;;;16.77;48.20
82887;BME280;72660;51.258;-2.200;2023-10-08T04:11:14;101680.56;;;16.52;48.65
82887;BME280;72660;51.258;-2.200;2023-10-08T04:13:40;101681.43;;;16.83;47.37
82887;BME280;72660;51.258;-2.200;2023-10-08T04:16:05;101683.04;;;17.23;47.94
82887;BME280;72660;51.258;-2.200;2023-10-08T04:18:30;101682.32;;;16.68;47.66
82887;BME280;72660;51.258;-2.200;2023-10-08T04:20:55;101686.35;;;17.08;47.49
82887;BME280;72660;51.258;-2.200;2023-10-08T04:23:21;101685.69;;;16.35;47.94
82887;BME280;72660;51.258;-2.200;2023-10-08T04:25:47;101686.21;;;16.24;47.71
82887;BME280;72660;51.258;-2.200;2023-10-08T04:28:11;101689.14;;;16.98;48.69
82887;BME280;72660;51.258;-2.200;2023-10-08T04:30:37;101692.62;;;16.47;47.64
82887;BME280;72660;51.258;-2.200;2023-10-08T04:33:03;101695.20;;;16.95;48.05
82887;BME280;72660;51.258;-2.200;2023-10-08T04:35:27;101694.35;;;16.79;47.87
82887;BME280;72660;51.258;-2.200;2023-10-08T04:37:52;101696.71;;;16.73;48.78
82887;BME280;72660;51.258;-2.200;2023-10-08T04:40:17;101695.64;;;16.14;48.44
82887;BME280;72660;51.258;-2.200;2023-10-08T04:42:43;101693.53;;;16.55;49.43
82887;BME280;72660;51.258;-2.200;2023-10-08T04:45:09;101694.84;;;16.48;48.15
82887;BME280;72660;51.258;-2.200;2023-10-08T04:47:33;101691.91;;;16.58;47.99
82887;BME280;72660;51.258;-2.200;2023-10-08T04:49:58;101689.64;;;16.47;48.29
82887;BME280;72660;51.258;-2.200;2023-10-08T04:52:24;101689.61;;;16.39;48.71
82887;BME280;72660;51.258;-2.200;2023-10-08T04:54:49;101689.08;;;16.38;49.88
82887;BME280;72660;51.258;-2.200;2023-10-08T04:57:14;101688.10;;;16.07;47.94
82887;BME280;72660;51.258;-2.200;2023-10-08T04:59:39;101681.95;;;16.73;49.48
82887;BME280;72660;51.258;-2.200;2023-10-08T05:02:05;101684.50;;;16.49;49.54
82887;BME280;72660;51.258;-2.200;2023-10-08T05:04:30;101687.54;;;16.79;49.62
82887;BME280;72660;51.258;-2.200;2023-10-08T05:06:55;101686.82;;;17.06;49.16
82887;BME280;72660;51.258;-2.200;2023-10-08T05:09:20;101684.45;;;16.98;49.59
82887;BME280;72660;51.258;-2.200;2023-10-08T05:11:47;101681.22;;;16.83;49.55
82887;BME280;72660;51.258;-2.200;2023-10-08T05:14:11;101684.12;;;16.85;49.25
82887;BME280;72660;51.258;-2.200;2023-10-08T05:16:36;101683.66;;;17.19;47.21
82887;BME280;72660;51.258;-2.200;2023-10-08T05:19:02;101682.19;;;17.02;48.70
82887;BME280;72660;51.258;-2.200;2023-10-08T05:21:27;101677.75;;;17.16;48.51
82887;BME280;72660;51.258;-2.200;2023-10-08T05:23:52;101672.32;;;16.94;48.36
82887;BME280;72660;51.258;-2.200;2023-10-08T05:26:17;101669.85;;;16.94;46.83
82887;BME280;72660;51.258;-2.200;2023-10-08T05:28:42;101670.02;;;17.28;48.42
82887;BME280;72660;51.258;-2.200;2023-10-08T05:31:08;101664.96;;;16.76;48.03
82887;BME280;72660;51.258;-2.200;2023-10-08T05:33:33;101665.77;;;16.61;48.31
82887;BME280;72660;51.258;-2.200;2023-10-08T05:35:58;101665.94;;;16.44;46.87
82887;BME280;72660;51.258;-2.200;2023-10-08T05:38:23;101666.81;;;16.79;48.52
82887;BME280;72660;51.258;-2.200;2023-10-08T05:40:49;101667.53;;;16.50;47.01
82887;BME280;72660;51.258;-2.200;2023-10-08T05:43:14;101666.32;;;16.96;47.85
82887;BME280;72660;51.258;-2.200;2023-10-08T05:45:40;101660.10;;;16.48;47.28
82887;BME280;72660;51.258;-2.200;2023-10-08T05:48:05;101660.47;;;16.15;47.06
82887;BME280;72660;51.258;-2.200;2023-10-08T05:50:30;101658.50;;;16.67;48.90
82887;BME280;72660;51.258;-2.200;2023-10-08T05:52:55;101661.08;;;16.95;48.73
82887;BME280;72660;51.258;-2.200;2023-10-08T05:55:21;101661.33;;;16.89;47.36
82887;BME280;72660;51.258;-2.200;2023-10-08T05:57:46;101658.89;;;17.08;48.11
82887;BME280;72660;51.258;-2.200;2023-10-08T06:00:12;101662.62;;;17.03;48.00
82887;BME280;72660;51.258;-2.200;2023-10-08T06:02:37;101658.35;;;16.86;47.06
82887;BME280;72660;51.258;-2.200;2023-10-08T06:05:05;101662.85;;;16.95;48.09
82887;BME280;72660;51.258;-2.200;2023-10-08T06:07:27;101663.29;;;17.01;47.85
82887;BME280;72660;51.258;-2.200;2023-10-08T06:09:53;101660.20;;;16.86;47.18
82887;BME280;72660;51.258;-2.200;2023-10-08T06:12:19;101659.28;;;17.06;46.36
82887;BME280;72660;51.258;-2.200;2023-10-08T06:14:44;101657.84;;;16.87;47.73
82887;BME280;72660;51.258;-2.200;2023-10-08T06:17:09;101655.89;;;16.85;48.12
82887;BME280;72660;51.258;-2.200;2023-10-08T06:19:35;101654.80;;;16.59;46.68
82887;BME280;72660;51.258;-2.200;2023-10-08T06:22:00;101654.64;;;17.06;46.76
82887;BME280;72660;51.258;-2.200;2023-10-08T06:24:27;101656.15;;;16.77;48.80
82887;BME280;72660;51.258;-2.200;2023-10-08T06:26:51;101657.13;;;16.59;46.37
82887;BME280;72660;51.258;-2.200;2023-10-08T06:29:16;101659.27;;;16.63;46.08
82887;BME280;72660;51.258;-2.200;2023-10-08T06:31:42;101658.96;;;16.84;46.49
82887;BME280;72660;51.258;-2.200;2023-10-08T06:34:07;101661.89;;;16.82;47.94
82887;BME280;72660;51.258;-2.200;2023-10-08T06:36:32;101660.75;;;16.77;47.25
82887;BME280;72660;51.258;-2.200;2023-10-08T06:38:57;101665.19;;;16.89;47.54
82887;BME280;72660;51.258;-2.200;2023-10-08T06:41:23;101669.07;;;16.92;46.95
82887;BME280;72660;51.258;-2.200;2023-10-08T06:43:49;101667.92;;;16.74;45.64
82887;BME280;72660;51.258;-2.200;2023-10-08T06:46:15;101669.91;;;16.64;46.06
82887;BME280;72660;51.258;-2.200;2023-10-08T06:48:40;101672.33;;;16.03;46.11
82887;BME280;72660;51.258;-2.200;2023-10-08T06:51:08;101672.97;;;15.89;47.11
82887;BME280;72660;51.258;-2.200;2023-10-08T06:53:30;101673.13;;;15.71;48.36
82887;BME280;72660;51.258;-2.200;2023-10-08T06:55:56;101681.46;;;16.30;46.87
82887;BME280;72660;51.258;-2.200;2023-10-08T06:58:22;101684.69;;;16.08;47.97
82887;BME280;72660;51.258;-2.200;2023-10-08T07:00:47;101689.31;;;16.32;46.86
82887;BME280;72660;51.258;-2.200;2023-10-08T07:03:13;101688.51;;;16.04;47.51
82887;BME280;72660;51.258;-2.200;2023-10-08T07:05:38;101688.72;;;16.17;48.28
82887;BME280;72660;51.258;-2.200;2023-10-08T07:08:04;101687.65;;;15.92;47.10
82887;BME280;72660;51.258;-2.200;2023-10-08T07:10:29;101687.72;;;15.92;47.38
82887;BME280;72660;51.258;-2.200;2023-10-08T07:12:54;101688.36;;;16.70;47.93
82887;BME280;72660;51.258;-2.200;2023-10-08T07:15:19;101690.42;;;16.85;46.30
82887;BME280;72660;51.258;-2.200;2023-10-08T07:17:44;101694.61;;;17.25;45.79
82887;BME280;72660;51.258;-2.200;2023-10-08T07:20:10;101698.99;;;17.42;45.20
82887;BME280;72660;51.258;-2.200;2023-10-08T07:22:35;101709.00;;;18.27;44.53
82887;BME280;72660;51.258;-2.200;2023-10-08T07:25:01;101720.84;;;19.00;42.16
82887;BME280;72660;51.258;-2.200;2023-10-08T07:27:27;101730.35;;;20.33;41.11
82887;BME280;72660;51.258;-2.200;2023-10-08T07:29:52;101727.61;;;20.99;38.71
82887;BME280;72660;51.258;-2.200;2023-10-08T07:32:18;101746.56;;;21.15;37.94
82887;BME280;72660;51.258;-2.200;2023-10-08T07:34:43;101743.59;;;22.66;36.02
82887;BME280;72660;51.258;-2.200;2023-10-08T07:37:09;101735.66;;;23.27;35.54
82887;BME280;72660;51.258;-2.200;2023-10-08T07:39:34;101734.31;;;22.74;35.33
82887;BME280;72660;51.258;-2.200;2023-10-08T07:42:01;101728.03;;;23.06;35.07
82887;BME280;72660;51.258;-2.200;2023-10-08T07:44:26;101713.34;;;22.89;35.21
82887;BME280;72660;51.258;-2.200;2023-10-08T07:46:52;101728.41;;;24.15;33.78
82887;BME280;72660;51.258;-2.200;2023-10-08T07:49:16;101711.61;;;25.22;32.60
82887;BME280;72660;51.258;-2.200;2023-10-08T07:51:41;101708.56;;;26.10;31.41
82887;BME280;72660;51.258;-2.200;2023-10-08T07:54:07;101702.79;;;27.39;29.83
82887;BME280;72660;51.258;-2.200;2023-10-08T07:56:32;101693.16;;;27.11;29.45
82887;BME280;72660;51.258;-2.200;2023-10-08T07:58:57;101702.72;;;28.33;29.13
82887;BME280;72660;51.258;-2.200;2023-10-08T08:01:23;101694.39;;;28.33;28.34
82887;BME280;72660;51.258;-2.200;2023-10-08T08:03:47;101690.18;;;27.19;29.70
82887;BME280;72660;51.258;-2.200;2023-10-08T08:06:13;101684.93;;;26.32;31.10
82887;BME280;72660;51.258;-2.200;2023-10-08T08:08:39;101688.82;;;25.12;31.61
82887;BME280;72660;51.258;-2.200;2023-10-08T08:11:04;101686.40;;;25.42;32.22
82887;BME280;72660;51.258;-2.200;2023-10-08T08:13:29;101688.42;;;24.52;33.32
82887;BME280;72660;51.258;-2.200;2023-10-08T08:15:55;101697.53;;;23.38;34.47
82887;BME280;72660;51.258;-2.200;2023-10-08T08:18:20;101697.27;;;23.45;35.38
82887;BME280;72660;51.258;-2.200;2023-10-08T08:20:45;101694.93;;;22.29;35.73
82887;BME280;72660;51.258;-2.200;2023-10-08T08:23:11;101696.29;;;22.81;35.95
82887;BME280;72660;51.258;-2.200;2023-10-08T08:25:37;101703.13;;;23.14;36.07
82887;BME280;72660;51.258;-2.200;2023-10-08T08:28:02;101705.00;;;23.76;35.14
82887;BME280;72660;51.258;-2.200;2023-10-08T08:30:27;101696.35;;;24.02;34.49
82887;BME280;72660;51.258;-2.200;2023-10-08T08:32:52;101698.59;;;23.48;34.46
82887;BME280;72660;51.258;-2.200;2023-10-08T08:35:18;101707.20;;;23.45;34.72
82887;BME280;72660;51.258;-2.200;2023-10-08T08:37:43;101711.88;;;23.42;34.79
82887;BME280;72660;51.258;-2.200;2023-10-08T08:40:10;101714.37;;;23.41;35.48
82887;BME280;72660;51.258;-2.200;2023-10-08T08:42:34;101720.92;;;23.06;35.41
82887;BME280;72660;51.258;-2.200;2023-10-08T08:45:00;101726.69;;;23.42;35.25
82887;BME280;72660;51.258;-2.200;2023-10-08T08:47:26;101731.06;;;23.45;35.52
82887;BME280;72660;51.258;-2.200;2023-10-08T08:49:50;101732.61;;;23.01;35.74
82887;BME280;72660;51.258;-2.200;2023-10-08T08:52:17;101737.23;;;23.52;35.95
82887;BME280;72660;51.258;-2.200;2023-10-08T08:54:41;101747.14;;;23.73;35.59
82887;BME280;72660;51.258;-2.200;2023-10-08T08:57:06;101752.45;;;23.34;35.64
82887;BME280;72660;51.258;-2.200;2023-10-08T08:59:31;101753.53;;;23.59;36.03
82887;BME280;72660;51.258;-2.200;2023-10-08T09:01:57;101754.64;;;23.36;36.40
82887;BME280;72660;51.258;-2.200;2023-10-08T09:04:28;101756.70;;;24.17;35.73
82887;BME280;72660;51.258;-2.200;2023-10-08T09:06:47;101754.97;;;24.18;35.29
82887;BME280;72660;51.258;-2.200;2023-10-08T09:09:13;101756.39;;;24.94;35.06
82887;BME280;72660;51.258;-2.200;2023-10-08T09:11:40;101759.09;;;24.27;34.76
82887;BME280;72660;51.258;-2.200;2023-10-08T09:14:04;101764.13;;;24.04;35.07
82887;BME280;72660;51.258;-2.200;2023-10-08T09:16:34;101772.15;;;24.09;35.15
82887;BME280;72660;51.258;-2.200;2023-10-08T09:18:55;101780.04;;;23.93;35.46
82887;BME280;72660;51.258;-2.200;2023-10-08T09:21:21;101779.43;;;23.53;35.10
82887;BME280;72660;51.258;-2.200;2023-10-08T09:23:50;101781.45;;;23.86;35.06
82887;BME280;72660;51.258;-2.200;2023-10-08T09:26:12;101780.50;;;24.37;34.97
82887;BME280;72660;51.258;-2.200;2023-10-08T09:28:37;101779.18;;;24.34;35.17
82887;BME280;72660;51.258;-2.200;2023-10-08T09:31:03;101772.95;;;24.40;34.52
82887;BME280;72660;51.258;-2.200;2023-10-08T09:33:28;101773.33;;;24.76;34.47
82887;BME280;72660;51.258;-2.200;2023-10-08T09:35:54;101772.31;;;24.96;33.96
82887;BME280;72660;51.258;-2.200;2023-10-08T09:38:19;101767.30;;;24.97;34.17
82887;BME280;72660;51.258;-2.200;2023-10-08T09:40:44;101760.81;;;25.05;33.93
82887;BME280;72660;51.258;-2.200;2023-10-08T09:43:10;101762.10;;;25.64;33.69
82887;BME280;72660;51.258;-2.200;2023-10-08T09:45:37;101759.34;;;25.32;34.03
82887;BME280;72660;51.258;-2.200;2023-10-08T09:48:02;101760.48;;;25.78;33.74
82887;BME280;72660;51.258;-2.200;2023-10-08T09:50:29;101760.88;;;25.77;33.41
82887;BME280;72660;51.258;-2.200;2023-10-08T09:52:58;101762.35;;;26.52;32.87
82887;BME280;72660;51.258;-2.200;2023-10-08T09:55:18;101764.50;;;26.89;32.17
82887;BME280;72660;51.258;-2.200;2023-10-08T09:57:42;101765.86;;;26.68;31.97
82887;BME280;72660;51.258;-2.200;2023-10-08T10:00:08;101770.14;;;27.08;31.86
82887;BME280;72660;51.258;-2.200;2023-10-08T10:02:33;101772.02;;;27.18;31.60
82887;BME280;72660;51.258;-2.200;2023-10-08T10:04:58;101769.66;;;27.86;30.87
82887;BME280;72660;51.258;-2.200;2023-10-08T10:07:26;101765.23;;;26.93;30.68
82887;BME280;72660;51.258;-2.200;2023-10-08T10:09:50;101763.17;;;26.75;30.24
82887;BME280;72660;51.258;-2.200;2023-10-08T10:12:18;101763.22;;;27.29;29.29
82887;BME280;72660;51.258;-2.200;2023-10-08T10:14:43;101759.41;;;27.08;30.04
82887;BME280;72660;51.258;-2.200;2023-10-08T10:17:10;101754.96;;;26.99;30.11
82887;BME280;72660;51.258;-2.200;2023-10-08T10:19:28;101750.33;;;26.41;30.41
82887;BME280;72660;51.258;-2.200;2023-10-08T10:21:54;101743.18;;;26.02;30.50
82887;BME280;72660;51.258;-2.200;2023-10-08T10:24:23;101743.78;;;25.51;31.50
82887;BME280;72660;51.258;-2.200;2023-10-08T10:26:44;101750.93;;;25.84;32.12
82887;BME280;72660;51.258;-2.200;2023-10-08T10:29:19;101754.26;;;25.91;31.56
82887;BME280;72660;51.258;-2.200;2023-10-08T10:31:34;101750.38;;;26.14;32.20
82887;BME280;72660;51.258;-2.200;2023-10-08T10:34:04;101749.77;;;26.47;31.86
82887;BME280;72660;51.258;-2.200;2023-10-08T10:36:26;101749.68;;;26.16;31.91
82887;BME280;72660;51.258;-2.200;2023-10-08T10:38:50;101749.20;;;26.52;31.42
82887;BME280;72660;51.258;-2.200;2023-10-08T10:41:16;101746.23;;;26.62;31.82
82887;BME280;72660;51.258;-2.200;2023-10-08T10:43:43;101749.25;;;26.98;31.65
82887;BME280;72660;51.258;-2.200;2023-10-08T10:46:06;101752.57;;;26.64;31.95
82887;BME280;72660;51.258;-2.200;2023-10-08T10:48:31;101763.48;;;26.75;31.71
82887;BME280;72660;51.258;-2.200;2023-10-08T10:50:56;101763.65;;;26.72;31.42
82887;BME280;72660;51.258;-2.200;2023-10-08T10:53:21;101760.78;;;26.87;31.14
82887;BME280;72660;51.258;-2.200;2023-10-08T10:55:47;101759.77;;;27.05;30.78
82887;BME280;72660;51.258;-2.200;2023-10-08T10:58:11;101762.74;;;27.69;30.53
82887;BME280;72660;51.258;-2.200;2023-10-08T11:00:37;101755.99;;;27.55;29.86
82887;BME280;72660;51.258;-2.200;2023-10-08T11:03:04;101756.44;;;27.31;29.89
82887;BME280;72660;51.258;-2.200;2023-10-08T11:05:28;101758.64;;;27.41;28.67
82887;BME280;72660;51.258;-2.200;2023-10-08T11:07:52;101756.70;;;27.60;29.33
82887;BME280;72660;51.258;-2.200;2023-10-08T11:10:18;101758.12;;;27.65;29.16
82887;BME280;72660;51.258;-2.200;2023-10-08T11:12:43;101756.35;;;27.58;29.37
82887;BME280;72660;51.258;-2.200;2023-10-08T11:15:09;101754.55;;;26.85;29.70
82887;BME280;72660;51.258;-2.200;2023-10-08T11:17:33;101753.50;;;26.63;29.99
82887;BME280;72660;51.258;-2.200;2023-10-08T11:19:58;101751.38;;;26.71;30.02
82887;BME280;72660;51.258;-2.200;2023-10-08T11:24:48;101746.80;;;26.63;30.47
82887;BME280;72660;51.258;-2.200;2023-10-08T11:27:15;101740.69;;;26.75;30.30
82887;BME280;72660;51.258;-2.200;2023-10-08T11:29:39;101740.53;;;27.29;29.74
82887;BME280;72660;51.258;-2.200;2023-10-08T11:32:05;101737.67;;;27.84;29.76
82887;BME280;72660;51.258;-2.200;2023-10-08T11:34:32;101735.14;;;27.82;29.79
82887;BME280;72660;51.258;-2.200;2023-10-08T11:36:55;101734.47;;;28.14;29.61
82887;BME280;72660;51.258;-2.200;2023-10-08T11:39:20;101731.32;;;27.94;30.14
82887;BME280;72660;51.258;-2.200;2023-10-08T11:41:57;101730.70;;;27.72;30.48
82887;BME280;72660;51.258;-2.200;2023-10-08T11:44:10;101731.44;;;27.56;30.56
82887;BME280;72660;51.258;-2.200;2023-10-08T11:46:35;101725.16;;;27.95;30.53
82887;BME280;72660;51.258;-2.200;2023-10-08T11:49:01;101724.77;;;27.71;30.16
82887;BME280;72660;51.258;-2.200;2023-10-08T11:51:25;101723.32;;;28.04;30.48
82887;BME280;72660;51.258;-2.200;2023-10-08T11:53:51;101723.86;;;27.45;30.64
82887;BME280;72660;51.258;-2.200;2023-10-08T11:56:16;101722.17;;;27.74;30.61
82887;BME280;72660;51.258;-2.200;2023-10-08T11:58:41;101721.38;;;27.40;31.09
82887;BME280;72660;51.258;-2.200;2023-10-08T12:01:06;101721.67;;;27.74;30.60
82887;BME280;72660;51.258;-2.200;2023-10-08T12:03:33;101725.14;;;27.55;31.08
82887;BME280;72660;51.258;-2.200;2023-10-08T12:05:56;101726.56;;;27.65;30.31
82887;BME280;72660;51.258;-2.200;2023-10-08T12:08:21;101722.19;;;27.96;30.21
82887;BME280;72660;51.258;-2.200;2023-10-08T12:10:47;101719.36;;;28.28;30.07
82887;BME280;72660;51.258;-2.200;2023-10-08T12:13:12;101718.42;;;28.20;30.34
82887;BME280;72660;51.258;-2.200;2023-10-08T12:15:37;101712.73;;;28.58;29.88
82887;BME280;72660;51.258;-2.200;2023-10-08T12:18:02;101708.29;;;28.11;30.80
82887;BME280;72660;51.258;-2.200;2023-10-08T12:20:27;101708.28;;;28.09;30.09
82887;BME280;72660;51.258;-2.200;2023-10-08T12:22:52;101706.97;;;27.49;30.19
82887;BME280;72660;51.258;-2.200;2023-10-08T12:25:17;101706.46;;;27.85;30.60
82887;BME280;72660;51.258;-2.200;2023-10-08T12:27:43;101704.70;;;27.71;30.67
82887;BME280;72660;51.258;-2.200;2023-10-08T12:30:08;101703.07;;;27.57;30.71
82887;BME280;72660;51.258;-2.200;2023-10-08T12:32:33;101694.56;;;27.51;30.73